Disclaimer

Please do not use the information listed here in-flight or in-navigation, as they are not provided to us by the airports but are provided by volunteers, so they might be outdated.

Search


Regions


Airport information page

No radio frequency information is available.

Airport informations:
Latitude: 63° 24' 30.02" N
Longitude: 018° 59' 24.14" E
Elevation: 354 feet - 108 meters
Operating hours: 24 hour operations
Operating agency: Civil government, landing fees and diplomatic clearance may be required
Timezone: UTC+1(+2DT) - Last Sunday in March to last Sunday in October
Fuel: Jet A1, without icing nhibitor.

100/130 MIL Spec, low lead, aviation gasoline (BLUE)

Runway information:
12/30 - 6607 x 148 feet< - >2014 x 45 meters

Recent METARs:
ESNO 170650Z 26005KT 230V290 CAVOK 04/01 Q1032
ESNO 170720Z 24006KT CAVOK 04/01 Q1033
ESNO 170750Z AUTO 25008KT 110V260 9999 NCD 04/01 Q1033

Airport on the map: